createdAt,value
2022-11-24T00:02:46.696Z,98970.22
2022-11-24T00:07:50.222Z,98973.84
2022-11-24T00:12:53.217Z,98981.88
2022-11-24T00:17:56.427Z,98978.44
2022-11-24T00:22:59.413Z,98985.50
2022-11-24T00:28:02.307Z,98981.06
2022-11-24T00:33:06.413Z,98991.59
2022-11-24T00:38:09.249Z,99000.28
2022-11-24T00:43:12.553Z,99003.91
2022-11-24T00:48:15.570Z,99013.91
2022-11-24T00:53:18.473Z,99021.94
2022-11-24T00:58:23.233Z,99025.69
2022-11-24T01:03:26.126Z,99016.00
2022-11-24T01:08:28.943Z,99016.81
2022-11-24T01:13:31.787Z,99019.31
2022-11-24T01:18:34.665Z,99015.53
2022-11-24T01:23:38.056Z,99018.84
2022-11-24T01:28:46.637Z,99026.59
2022-11-24T01:33:50.547Z,99019.81
2022-11-24T01:38:53.432Z,99029.50
2022-11-24T01:43:57.422Z,99032.97
2022-11-24T01:49:09.211Z,99024.41
2022-11-24T01:54:35.443Z,99030.66
2022-11-24T01:59:38.743Z,99033.59
2022-11-24T02:04:42.752Z,99032.09
2022-11-24T02:09:52.913Z,99024.50
2022-11-24T02:14:56.888Z,99029.94
2022-11-24T02:20:04.433Z,99036.16
2022-11-24T02:25:58.580Z,99032.88
2022-11-24T02:31:02.454Z,99034.53
2022-11-24T02:36:05.710Z,99039.94
2022-11-24T02:41:15.130Z,99033.16
2022-11-24T02:46:18.038Z,99035.81
2022-11-24T02:51:21.123Z,99029.72
2022-11-24T02:56:25.607Z,99035.28
2022-11-24T03:01:28.521Z,99032.16
2022-11-24T03:06:31.500Z,99039.66
2022-11-24T03:11:34.345Z,99052.41
2022-11-24T03:16:37.294Z,99036.59
2022-11-24T03:21:40.243Z,99048.69
2022-11-24T03:26:43.187Z,99055.06
2022-11-24T03:31:46.245Z,99050.25
2022-11-24T03:36:49.067Z,99059.94
2022-11-24T03:41:51.932Z,99064.69
2022-11-24T03:46:54.952Z,99073.84
2022-11-24T03:51:57.870Z,99070.69
2022-11-24T03:57:00.872Z,99070.31
2022-11-24T04:02:03.797Z,99074.38
2022-11-24T04:07:06.732Z,99071.50
2022-11-24T04:12:29.162Z,99070.97
2022-11-24T04:17:32.097Z,99087.84
2022-11-24T04:22:35.869Z,99082.34
2022-11-24T04:27:39.359Z,99093.16
2022-11-24T04:32:42.383Z,99099.00
2022-11-24T04:37:45.180Z,99102.59
2022-11-24T04:42:55.666Z,99102.19
2022-11-24T04:47:58.604Z,99112.31
2022-11-24T04:53:01.528Z,99125.03
2022-11-24T04:58:04.477Z,99126.72
2022-11-24T05:03:07.367Z,99135.34
2022-11-24T05:08:10.234Z,99135.91
2022-11-24T05:13:13.965Z,99145.53
2022-11-24T05:18:16.874Z,99153.56
2022-11-24T05:23:19.822Z,99156.19
2022-11-24T05:28:22.727Z,99150.66
2022-11-24T05:33:28.630Z,99161.56
2022-11-24T05:38:33.092Z,99170.78
2022-11-24T05:43:35.989Z,99172.84
2022-11-24T05:48:39.152Z,99179.31
2022-11-24T05:53:42.046Z,99185.09
2022-11-24T05:58:45.087Z,99191.69
2022-11-24T06:03:48.267Z,99196.00
2022-11-24T06:08:51.165Z,99198.63
2022-11-24T06:13:54.616Z,99194.31
2022-11-24T06:18:57.991Z,99204.41
2022-11-24T06:24:00.753Z,99216.53
2022-11-24T06:29:03.978Z,99224.00
2022-11-24T06:34:11.060Z,99228.97
2022-11-24T06:39:13.987Z,99237.91
2022-11-24T06:44:17.011Z,99235.00
2022-11-24T06:49:20.150Z,99234.41
2022-11-24T06:54:23.352Z,99240.06
2022-11-24T06:59:27.745Z,99251.53
2022-11-24T07:04:30.820Z,99257.16
2022-11-24T07:09:33.698Z,99270.00
2022-11-24T07:14:36.797Z,99269.31
2022-11-24T07:19:40.055Z,99277.78
2022-11-24T07:24:42.868Z,99287.56
2022-11-24T07:29:45.775Z,99283.56
2022-11-24T07:34:48.678Z,99298.97
2022-11-24T07:39:51.544Z,99302.41
2022-11-24T07:44:54.368Z,99306.78
2022-11-24T07:49:57.499Z,99304.84
2022-11-24T07:55:00.439Z,99303.72
2022-11-24T08:00:05.927Z,99311.59
2022-11-24T08:05:09.314Z,99321.44
2022-11-24T08:10:12.309Z,99327.94
2022-11-24T08:15:15.866Z,99331.41
2022-11-24T08:20:19.007Z,99330.44
2022-11-24T08:25:24.456Z,99326.41
2022-11-24T08:30:27.911Z,99331.44
2022-11-24T08:35:30.795Z,99322.53
2022-11-24T08:40:33.930Z,99320.97
2022-11-24T08:45:41.359Z,99323.16
2022-11-24T08:50:44.881Z,99332.84
2022-11-24T08:55:47.821Z,99330.91
2022-11-24T09:00:50.638Z,99328.97
2022-11-24T09:05:53.581Z,99333.78
2022-11-24T09:11:05.761Z,99332.22
2022-11-24T09:16:17.937Z,99329.81
2022-11-24T09:21:21.905Z,99330.72
2022-11-24T09:26:31.113Z,99335.91
2022-11-24T09:31:37.193Z,99329.59
2022-11-24T09:36:40.045Z,99330.31
2022-11-24T09:42:06.034Z,99318.28
2022-11-24T09:47:30.622Z,99318.06
2022-11-24T09:52:43.245Z,99329.16
2022-11-24T09:57:56.077Z,99326.75
2022-11-24T10:02:59.003Z,99337.28
2022-11-24T10:08:36.105Z,99343.16
2022-11-24T10:14:03.068Z,99351.81
2022-11-24T10:19:36.315Z,99360.00
2022-11-24T10:25:07.692Z,99358.22
2022-11-24T10:30:23.914Z,99358.22
2022-11-24T10:35:37.649Z,99359.56
2022-11-24T10:40:56.859Z,99371.44
2022-11-24T10:46:09.120Z,99379.56
2022-11-24T10:51:30.429Z,99389.94
2022-11-24T10:56:44.911Z,99396.03
2022-11-24T11:01:47.996Z,99403.50
2022-11-24T11:06:51.428Z,99402.50
2022-11-24T11:11:54.394Z,99405.81
2022-11-24T11:16:58.136Z,99406.19
2022-11-24T11:22:48.324Z,99410.81
2022-11-24T11:27:51.592Z,99410.22
2022-11-24T11:38:21.385Z,99416.59
2022-11-24T11:43:34.467Z,99421.25
2022-11-24T11:48:43.581Z,99434.47
2022-11-24T11:54:16.477Z,99435.50
2022-11-24T11:59:50.104Z,99437.50
2022-11-24T12:05:34.182Z,99435.91
2022-11-24T12:10:56.191Z,99439.91
2022-11-24T12:16:14.677Z,99436.16
2022-11-24T12:21:26.637Z,99428.56
2022-11-24T12:26:49.331Z,99432.00
2022-11-24T12:32:21.231Z,99426.66
2022-11-24T12:37:47.326Z,99446.56
2022-11-24T12:43:13.563Z,99450.66
2022-11-24T12:48:43.071Z,99452.47
2022-11-24T12:53:52.951Z,99445.75
2022-11-24T12:59:13.480Z,99452.72
2022-11-24T13:04:38.138Z,99453.91
2022-11-24T13:10:53.524Z,99444.13
2022-11-24T13:16:34.434Z,99448.66
2022-11-24T13:21:32.837Z,99460.28
2022-11-24T13:26:41.557Z,99449.25
2022-11-24T13:31:44.769Z,99459.09
2022-11-24T13:36:54.127Z,99468.69
2022-11-24T13:41:57.239Z,99479.06
2022-11-24T13:47:25.056Z,99491.59
2022-11-24T13:52:39.847Z,99492.41
2022-11-24T13:57:58.427Z,99500.31
2022-11-24T14:03:22.037Z,99523.22
2022-11-24T14:08:30.460Z,99517.09
2022-11-24T14:13:33.626Z,99525.16
2022-11-24T14:18:40.059Z,99525.47
2022-11-24T14:24:33.472Z,99524.94
2022-11-24T14:30:03.351Z,99517.81
2022-11-24T14:35:29.210Z,99526.16
2022-11-24T14:40:55.570Z,99530.06
2022-11-24T14:46:09.380Z,99529.53
2022-11-24T14:51:32.306Z,99534.28
2022-11-24T14:56:38.198Z,99535.69
2022-11-24T15:01:41.083Z,99545.72
2022-11-24T15:07:26.403Z,99559.88
2022-11-24T15:12:41.005Z,99560.31
2022-11-24T15:17:59.276Z,99566.69
2022-11-24T15:23:23.993Z,99569.50
2022-11-24T15:28:27.427Z,99572.13
2022-11-24T15:33:30.960Z,99573.53
2022-11-24T15:38:33.972Z,99570.00
2022-11-24T15:43:41.136Z,99587.66
2022-11-24T15:48:43.984Z,99593.94
2022-11-24T15:53:58.722Z,99592.84
2022-11-24T15:59:04.711Z,99601.31
2022-11-24T16:04:07.813Z,99600.78
2022-11-24T16:09:16.281Z,99610.94
2022-11-24T16:14:19.356Z,99618.13
2022-11-24T16:19:22.391Z,99624.34
2022-11-24T16:24:25.912Z,99621.47
2022-11-24T16:29:28.770Z,99634.53
2022-11-24T16:34:31.733Z,99634.09
2022-11-24T16:39:37.282Z,99643.38
2022-11-24T16:44:40.352Z,99648.94
2022-11-24T16:49:43.420Z,99653.38
2022-11-24T16:54:47.732Z,99668.59
2022-11-24T16:59:50.632Z,99672.19
2022-11-24T17:04:53.571Z,99669.03
2022-11-24T17:09:56.806Z,99670.53
2022-11-24T17:15:30.452Z,99676.91
2022-11-24T17:20:22.816Z,99679.66
2022-11-24T17:25:25.754Z,99684.66
2022-11-24T17:30:28.600Z,99694.88
2022-11-24T17:35:34.370Z,99696.78
2022-11-24T17:40:37.205Z,99697.63
2022-11-24T17:45:40.161Z,99708.41
2022-11-24T17:50:43.460Z,99712.84
2022-11-24T17:55:48.208Z,99719.34
2022-11-24T18:00:52.171Z,99727.22
2022-11-24T18:05:55.972Z,99727.66
2022-11-24T18:11:27.332Z,99747.84
2022-11-24T18:16:35.011Z,99744.91
2022-11-24T18:21:44.809Z,99749.75
2022-11-24T18:26:48.222Z,99763.41
2022-11-24T18:31:51.203Z,99767.53
2022-11-24T18:36:54.316Z,99774.69
2022-11-24T18:41:56.961Z,99780.56
2022-11-24T18:46:59.811Z,99786.34
2022-11-24T18:52:02.696Z,99793.28
2022-11-24T18:57:05.808Z,99801.25
2022-11-24T19:02:10.860Z,99794.50
2022-11-24T19:07:17.072Z,99796.28
2022-11-24T19:12:20.023Z,99798.63
2022-11-24T19:17:22.974Z,99807.25
2022-11-24T19:22:25.811Z,99809.88
2022-11-24T19:27:29.738Z,99830.47
2022-11-24T19:32:32.773Z,99835.97
2022-11-24T19:37:35.640Z,99839.56
2022-11-24T19:42:38.598Z,99847.25
2022-11-24T19:47:41.828Z,99849.00
2022-11-24T19:52:44.767Z,99849.28
2022-11-24T19:57:47.703Z,99860.56
2022-11-24T20:02:51.113Z,99866.38
2022-11-24T20:07:54.800Z,99863.88
2022-11-24T20:12:57.768Z,99864.56
2022-11-24T20:18:00.655Z,99874.72
2022-11-24T20:23:03.832Z,99880.53
2022-11-24T20:28:07.148Z,99884.13
2022-11-24T20:33:10.084Z,99891.22
2022-11-24T20:38:12.974Z,99899.56
2022-11-24T20:43:15.945Z,99899.50
2022-11-24T20:48:18.825Z,99899.69
2022-11-24T20:53:21.743Z,99902.78
2022-11-24T20:58:24.672Z,99906.50
2022-11-24T21:03:27.587Z,99901.94
2022-11-24T21:08:36.038Z,99912.06
2022-11-24T21:13:43.750Z,99902.94
2022-11-24T21:18:52.413Z,99911.28
2022-11-24T21:23:55.256Z,99921.78
2022-11-24T21:28:58.362Z,99930.03
2022-11-24T21:34:01.022Z,99931.97
2022-11-24T21:39:04.529Z,99938.44
2022-11-24T21:44:07.761Z,99933.59
2022-11-24T21:49:10.746Z,99933.13
2022-11-24T21:54:13.663Z,99932.31
2022-11-24T21:59:16.473Z,99935.16
2022-11-24T22:04:19.372Z,99943.06
2022-11-24T22:09:22.254Z,99938.00
2022-11-24T22:14:25.163Z,99943.78
2022-11-24T22:19:27.964Z,99938.06
2022-11-24T22:24:30.819Z,99953.13
2022-11-24T22:29:34.238Z,99955.44
2022-11-24T22:34:37.280Z,99960.22
2022-11-24T22:39:40.355Z,99963.38
2022-11-24T22:44:43.259Z,99961.16
2022-11-24T22:49:46.080Z,99967.59
2022-11-24T22:54:49.015Z,99969.41
2022-11-24T22:59:51.809Z,99979.91
2022-11-24T23:04:54.798Z,99983.22
2022-11-24T23:09:57.462Z,99996.63
2022-11-24T23:15:00.229Z,99997.97
2022-11-24T23:20:03.329Z,100005.00
2022-11-24T23:25:06.763Z,100000.72
2022-11-24T23:30:09.818Z,100002.38
2022-11-24T23:35:14.158Z,100012.63
2022-11-24T23:40:17.375Z,100005.00
2022-11-24T23:45:20.246Z,100011.78
2022-11-24T23:50:23.090Z,100012.88
2022-11-24T23:55:26.001Z,100022.06
